EFW45L EGKK-LFBD
Flight info
| Callsign | EFW45L |
|---|---|
| Flight time | N/A |
| Altitude | 33000 |
| Route | SFD4Z SFD Y47 BENBO UY47 DRAKE L151 SITET UN859 SOPIL DCT BALAN DCT LMG LMG2L |
| Aircraft | A321/M-SDE3FGIJ1KRWXY/SB1 |
Departure
| Time | N/A |
|---|---|
| Airport | London Gatwick Airport (EGKK) |
Arrival
| Time | 2026-04-30 19:47 |
|---|---|
| Airport | Bordeaux–Mérignac Airport (LFBD) |
| Time | Latitude | Longitude | Altitude | Speed | Heading |
|---|---|---|---|---|---|
| 2026-04-30 19:27 | 45.67827 | 0.75495 | 28819 ft | 435 kts | 231° |
| 2026-04-30 19:27 | 45.64287 | 0.68594 | 27708 ft | 426 kts | 231° |
| 2026-04-30 19:28 | 45.62542 | 0.65190 | 27161 ft | 421 kts | 231° |
| 2026-04-30 19:28 | 45.59686 | 0.59629 | 26266 ft | 415 kts | 231° |
| 2026-04-30 19:29 | 45.56293 | 0.53052 | 25217 ft | 408 kts | 231° |
| 2026-04-30 19:29 | 45.54619 | 0.49813 | 24706 ft | 404 kts | 231° |
| 2026-04-30 19:30 | 45.49676 | 0.40244 | 23200 ft | 394 kts | 231° |
| 2026-04-30 19:30 | 45.46457 | 0.34037 | 22286 ft | 384 kts | 231° |
| 2026-04-30 19:31 | 45.43324 | 0.28006 | 21429 ft | 374 kts | 231° |
| 2026-04-30 19:31 | 45.41787 | 0.25049 | 20994 ft | 368 kts | 231° |
| 2026-04-30 19:31 | 45.38770 | 0.19269 | 20126 ft | 359 kts | 231° |
| 2026-04-30 19:32 | 45.37285 | 0.16435 | 19673 ft | 356 kts | 231° |
| 2026-04-30 19:32 | 45.35819 | 0.13633 | 19241 ft | 352 kts | 231° |
| 2026-04-30 19:32 | 45.34362 | 0.10837 | 18734 ft | 355 kts | 231° |
| 2026-04-30 19:32 | 45.32874 | 0.07950 | 18130 ft | 365 kts | 231° |
| 2026-04-30 19:33 | 45.31382 | 0.05030 | 17564 ft | 365 kts | 232° |
| 2026-04-30 19:33 | 45.29897 | 0.02120 | 17009 ft | 362 kts | 232° |
| 2026-04-30 19:33 | 45.28425 | -0.00763 | 16467 ft | 360 kts | 232° |
| 2026-04-30 19:33 | 45.26960 | -0.03625 | 15914 ft | 357 kts | 232° |
| 2026-04-30 19:34 | 45.25503 | -0.06459 | 15380 ft | 354 kts | 232° |
| 2026-04-30 19:34 | 45.24054 | -0.09269 | 14829 ft | 351 kts | 232° |
| 2026-04-30 19:34 | 45.21182 | -0.14823 | 13746 ft | 347 kts | 232° |
| 2026-04-30 19:35 | 45.19761 | -0.17566 | 13200 ft | 343 kts | 232° |
| 2026-04-30 19:35 | 45.18356 | -0.20279 | 12677 ft | 339 kts | 232° |
| 2026-04-30 19:35 | 45.16954 | -0.22948 | 12165 ft | 336 kts | 229° |
| 2026-04-30 19:35 | 45.15365 | -0.25335 | 11648 ft | 332 kts | 224° |
| 2026-04-30 19:36 | 45.13754 | -0.27654 | 11148 ft | 329 kts | 224° |
| 2026-04-30 19:36 | 45.12159 | -0.29952 | 10661 ft | 326 kts | 224° |
| 2026-04-30 19:36 | 45.09397 | -0.34663 | 10367 ft | 299 kts | 240° |
| 2026-04-30 19:37 | 45.08614 | -0.37319 | 10170 ft | 291 kts | 249° |
| 2026-04-30 19:37 | 45.07938 | -0.39980 | 9976 ft | 285 kts | 248° |
| 2026-04-30 19:37 | 45.07262 | -0.42620 | 9823 ft | 286 kts | 248° |
| 2026-04-30 19:37 | 45.06580 | -0.45261 | 9444 ft | 285 kts | 248° |
| 2026-04-30 19:38 | 45.05899 | -0.47882 | 9026 ft | 283 kts | 248° |
| 2026-04-30 19:38 | 45.05222 | -0.50492 | 8599 ft | 282 kts | 249° |
| 2026-04-30 19:38 | 45.04551 | -0.53090 | 8200 ft | 281 kts | 249° |
| 2026-04-30 19:38 | 45.03878 | -0.55694 | 7735 ft | 282 kts | 249° |
| 2026-04-30 19:39 | 45.03210 | -0.58276 | 7396 ft | 277 kts | 249° |
| 2026-04-30 19:39 | 45.02550 | -0.60819 | 6848 ft | 274 kts | 249° |
| 2026-04-30 19:39 | 45.01897 | -0.63326 | 6405 ft | 270 kts | 249° |
| 2026-04-30 19:39 | 45.01247 | -0.65820 | 5988 ft | 271 kts | 249° |
| 2026-04-30 19:40 | 45.00596 | -0.68310 | 5595 ft | 270 kts | 249° |
| 2026-04-30 19:40 | 44.99946 | -0.70792 | 5194 ft | 269 kts | 249° |
| 2026-04-30 19:40 | 44.99306 | -0.73233 | 4807 ft | 268 kts | 249° |
| 2026-04-30 19:40 | 44.98659 | -0.75702 | 4390 ft | 268 kts | 249° |
| 2026-04-30 19:41 | 44.98017 | -0.78163 | 4003 ft | 266 kts | 249° |
| 2026-04-30 19:41 | 44.97376 | -0.80613 | 3611 ft | 265 kts | 248° |
| 2026-04-30 19:41 | 44.96739 | -0.83046 | 3277 ft | 263 kts | 248° |
| 2026-04-30 19:41 | 44.96118 | -0.85412 | 3146 ft | 251 kts | 248° |
| 2026-04-30 19:42 | 44.95509 | -0.87660 | 3024 ft | 239 kts | 243° |
| 2026-04-30 19:42 | 44.94581 | -0.89498 | 2827 ft | 226 kts | 221° |
| 2026-04-30 19:42 | 44.93287 | -0.90697 | 2753 ft | 219 kts | 202° |
| 2026-04-30 19:42 | 44.91901 | -0.91311 | 2494 ft | 201 kts | 195° |
| 2026-04-30 19:43 | 44.90611 | -0.91835 | 2270 ft | 188 kts | 195° |
| 2026-04-30 19:43 | 44.89369 | -0.92345 | 2134 ft | 184 kts | 195° |
| 2026-04-30 19:43 | 44.88120 | -0.92397 | 2051 ft | 179 kts | 162° |
| 2026-04-30 19:44 | 44.86701 | -0.89959 | 2008 ft | 166 kts | 108° |
| 2026-04-30 19:44 | 44.86378 | -0.88408 | 2007 ft | 165 kts | 108° |
| 2026-04-30 19:44 | 44.86055 | -0.86858 | 2008 ft | 164 kts | 108° |
| 2026-04-30 19:44 | 44.85733 | -0.85316 | 2010 ft | 164 kts | 108° |
| 2026-04-30 19:45 | 44.85413 | -0.83787 | 1997 ft | 158 kts | 108° |
| 2026-04-30 19:45 | 44.85113 | -0.82344 | 1732 ft | 149 kts | 108° |
| 2026-04-30 19:45 | 44.84825 | -0.80961 | 1494 ft | 146 kts | 108° |
| 2026-04-30 19:45 | 44.84540 | -0.79597 | 1280 ft | 144 kts | 107° |
| 2026-04-30 19:46 | 44.84256 | -0.78242 | 1052 ft | 144 kts | 107° |
| 2026-04-30 19:46 | 44.83973 | -0.76893 | 831 ft | 144 kts | 107° |
| 2026-04-30 19:46 | 44.83705 | -0.75537 | 639 ft | 144 kts | 108° |
| 2026-04-30 19:46 | 44.83423 | -0.74192 | 403 ft | 142 kts | 107° |
| 2026-04-30 19:47 | 44.83150 | -0.72873 | 213 ft | 141 kts | 107° |
| 2026-04-30 19:47 | 44.82958 | -0.72002 | 179 ft | 129 kts | 105° |
| 2026-04-30 19:47 | 44.82721 | -0.70878 | 165 ft | 35 kts | 106° |
| 2026-04-30 19:47 | 44.82653 | -0.70546 | 168 ft | 40 kts | 106° |
| 2026-04-30 19:48 | 44.82581 | -0.70191 | 171 ft | 37 kts | 106° |
| 2026-04-30 19:48 | 44.82580 | -0.69982 | 170 ft | 9 kts | 26° |
| 2026-04-30 19:48 | 44.82652 | -0.69948 | 168 ft | 12 kts | 18° |
| 2026-04-30 19:48 | 44.82733 | -0.69963 | 168 ft | 12 kts | 301° |
| 2026-04-30 19:49 | 44.82763 | -0.70096 | 168 ft | 19 kts | 288° |
| 2026-04-30 19:49 | 44.82870 | -0.70598 | 168 ft | 29 kts | 286° |
| 2026-04-30 19:49 | 44.82930 | -0.70879 | 167 ft | 30 kts | 287° |
| 2026-04-30 19:50 | 44.82988 | -0.70919 | 167 ft | 10 kts | 44° |
| 2026-04-30 19:50 | 44.83046 | -0.70828 | 168 ft | 14 kts | 47° |
| 2026-04-30 19:50 | 44.83134 | -0.70702 | 168 ft | 21 kts | 45° |
| 2026-04-30 19:50 | 44.83245 | -0.70541 | 168 ft | 25 kts | 46° |
| 2026-04-30 19:51 | 44.83368 | -0.70362 | 167 ft | 24 kts | 62° |
| 2026-04-30 19:51 | 44.83345 | -0.70268 | 167 ft | 7 kts | 129° |
| 2026-04-30 19:51 | 44.83328 | -0.70242 | 167 ft | 0 kts | 134° |
| 2026-04-30 19:51 | 44.83324 | -0.70237 | 167 ft | 0 kts | 134° |